KLIT 201353Z VRB03KT 10SM SCT250 28/25 A3005 RMK AO2 SLP175 T02780250